createdAt,value
2023-03-30T00:00:48.022Z,69.13
2023-03-30T00:03:39.195Z,69.10
2023-03-30T00:06:29.689Z,69.29
2023-03-30T00:09:18.377Z,69.19
2023-03-30T00:12:07.868Z,69.27
2023-03-30T00:14:57.925Z,69.18
2023-03-30T00:17:48.076Z,69.29
2023-03-30T00:20:37.499Z,69.19
2023-03-30T00:23:27.531Z,69.08
2023-03-30T00:26:17.482Z,69.15
2023-03-30T00:29:07.352Z,69.13
2023-03-30T00:31:57.437Z,69.40
2023-03-30T00:34:46.937Z,69.35
2023-03-30T00:37:37.357Z,69.42
2023-03-30T00:40:27.037Z,69.59
2023-03-30T00:43:17.491Z,69.38
2023-03-30T00:46:06.700Z,69.40
2023-03-30T00:49:00.519Z,69.53
2023-03-30T00:51:51.231Z,69.59
2023-03-30T00:54:41.376Z,70.04
2023-03-30T00:57:31.590Z,70.08
2023-03-30T01:00:22.591Z,70.32
2023-03-30T01:03:18.731Z,70.00
2023-03-30T01:06:10.951Z,70.01
2023-03-30T01:08:59.971Z,70.12
2023-03-30T01:11:49.064Z,70.45
2023-03-30T01:14:39.181Z,70.14
2023-03-30T01:17:33.488Z,70.30
2023-03-30T01:21:04.256Z,70.50
2023-03-30T01:24:35.184Z,70.40
2023-03-30T01:27:51.714Z,70.27
2023-03-30T01:31:06.729Z,70.21
2023-03-30T01:34:12.199Z,70.38
2023-03-30T01:37:40.319Z,70.41
2023-03-30T01:40:34.253Z,70.57
2023-03-30T01:43:36.838Z,70.46
2023-03-30T01:46:31.047Z,70.45
2023-03-30T01:49:30.150Z,70.45
2023-03-30T01:52:25.083Z,70.49
2023-03-30T01:55:18.246Z,70.68
2023-03-30T01:58:13.539Z,70.50
2023-03-30T02:01:06.914Z,70.45
2023-03-30T02:03:59.973Z,70.47
2023-03-30T02:06:51.460Z,70.37
2023-03-30T02:09:44.766Z,70.30
2023-03-30T02:12:35.026Z,70.28
2023-03-30T02:15:27.498Z,70.01
2023-03-30T02:18:35.047Z,70.12
2023-03-30T02:21:23.857Z,70.30
2023-03-30T02:24:18.761Z,70.40
2023-03-30T02:27:07.888Z,69.96
2023-03-30T02:29:58.744Z,70.19
2023-03-30T02:32:51.632Z,70.29
2023-03-30T02:35:58.418Z,70.52
2023-03-30T02:39:05.989Z,70.45
2023-03-30T02:42:16.689Z,70.39
2023-03-30T02:45:24.549Z,70.54
2023-03-30T02:48:28.723Z,70.88
2023-03-30T02:51:35.362Z,70.97
2023-03-30T02:54:46.406Z,71.11
2023-03-30T02:58:04.334Z,71.18
2023-03-30T03:01:18.029Z,71.52
2023-03-30T03:04:16.210Z,71.54
2023-03-30T03:07:28.313Z,71.71
2023-03-30T03:10:17.534Z,71.84
2023-03-30T03:13:06.199Z,72.17
2023-03-30T03:15:56.896Z,72.45
2023-03-30T03:18:47.107Z,72.54
2023-03-30T03:21:37.910Z,72.49
2023-03-30T03:24:26.594Z,72.55
2023-03-30T03:27:35.804Z,72.78
2023-03-30T03:30:33.079Z,72.94
2023-03-30T03:33:28.987Z,72.87
2023-03-30T03:36:37.934Z,72.95
2023-03-30T03:39:27.049Z,73.10
2023-03-30T03:42:24.714Z,72.89
2023-03-30T03:45:23.763Z,72.93
2023-03-30T03:48:18.306Z,73.29
2023-03-30T03:51:11.302Z,73.23
2023-03-30T03:54:01.741Z,73.01
2023-03-30T03:56:51.963Z,73.24
2023-03-30T03:59:41.561Z,73.43
2023-03-30T04:02:30.815Z,73.18
2023-03-30T04:05:19.734Z,73.43
2023-03-30T04:08:10.633Z,73.64
2023-03-30T04:11:08.022Z,73.68
2023-03-30T04:14:15.879Z,73.65
2023-03-30T04:17:23.837Z,73.88
2023-03-30T04:20:29.278Z,73.83
2023-03-30T04:23:48.995Z,74.01
2023-03-30T04:26:42.788Z,73.99
2023-03-30T04:29:49.913Z,73.88
2023-03-30T04:33:04.170Z,74.17
2023-03-30T04:36:19.042Z,74.33
2023-03-30T04:39:33.598Z,74.34
2023-03-30T04:42:38.389Z,74.62
2023-03-30T04:46:05.477Z,74.61
2023-03-30T04:49:25.789Z,74.47
2023-03-30T04:52:43.599Z,74.39
2023-03-30T04:55:52.670Z,74.73
2023-03-30T04:59:01.703Z,74.60
2023-03-30T05:02:06.225Z,74.27
2023-03-30T05:05:07.423Z,74.47
2023-03-30T05:08:14.562Z,74.17
2023-03-30T05:11:13.591Z,74.38
2023-03-30T05:14:17.058Z,74.80
2023-03-30T05:17:23.970Z,74.85
2023-03-30T05:20:37.579Z,75.42
2023-03-30T05:23:34.473Z,75.94
2023-03-30T05:26:57.809Z,76.45
2023-03-30T05:29:59.410Z,76.70
2023-03-30T05:33:01.419Z,77.20
2023-03-30T05:36:11.223Z,77.47
2023-03-30T05:39:10.019Z,78.08
2023-03-30T05:42:13.538Z,78.25
2023-03-30T05:45:15.594Z,79.01
2023-03-30T05:48:23.563Z,79.24
2023-03-30T05:51:27.778Z,79.33
2023-03-30T05:54:33.917Z,79.66
2023-03-30T05:57:47.072Z,80.08
2023-03-30T06:01:00.480Z,80.59
2023-03-30T06:03:56.775Z,80.93
2023-03-30T06:06:47.780Z,81.12
2023-03-30T06:09:38.547Z,81.52
2023-03-30T06:12:39.335Z,81.63
2023-03-30T06:15:34.105Z,81.93
2023-03-30T06:18:31.056Z,82.30
2023-03-30T06:21:25.205Z,82.58
2023-03-30T06:24:36.798Z,83.09
2023-03-30T06:27:25.502Z,83.17
2023-03-30T06:30:15.769Z,83.64
2023-03-30T06:33:08.093Z,83.85
2023-03-30T06:36:14.114Z,84.54
2023-03-30T06:39:06.527Z,84.72
2023-03-30T06:41:56.778Z,84.67
2023-03-30T06:44:56.259Z,85.05
2023-03-30T06:47:46.419Z,85.05
2023-03-30T06:50:36.735Z,85.26
2023-03-30T06:53:31.218Z,84.85
2023-03-30T06:56:19.887Z,85.25
2023-03-30T06:59:26.351Z,85.05
2023-03-30T07:02:34.113Z,85.29
2023-03-30T07:05:43.981Z,85.60
2023-03-30T07:08:40.258Z,85.78
2023-03-30T07:11:31.985Z,85.64
2023-03-30T07:14:20.888Z,85.49
2023-03-30T07:17:11.027Z,85.81
2023-03-30T07:19:59.767Z,85.81
2023-03-30T07:22:48.648Z,85.74
2023-03-30T07:25:39.686Z,85.57
2023-03-30T07:28:38.585Z,85.58
2023-03-30T07:31:27.921Z,85.80
2023-03-30T07:34:17.722Z,85.62
2023-03-30T07:37:12.140Z,85.42
2023-03-30T07:40:01.527Z,85.15
2023-03-30T07:42:52.362Z,85.12
2023-03-30T07:45:41.949Z,84.87
2023-03-30T07:48:35.762Z,84.35
2023-03-30T07:51:27.366Z,84.38
2023-03-30T07:54:24.328Z,84.02
2023-03-30T07:57:38.926Z,83.64
2023-03-30T08:00:29.665Z,83.32
2023-03-30T08:03:41.261Z,83.35
2023-03-30T08:06:32.521Z,83.26
2023-03-30T08:09:22.525Z,82.97
2023-03-30T08:12:11.787Z,82.90
2023-03-30T08:15:02.232Z,82.58
2023-03-30T08:17:53.854Z,82.55
2023-03-30T08:20:43.911Z,82.40
2023-03-30T08:23:33.627Z,82.36
2023-03-30T08:26:22.450Z,82.32
2023-03-30T08:29:11.764Z,82.13
2023-03-30T08:32:00.682Z,81.99
2023-03-30T08:34:52.297Z,81.92
2023-03-30T08:37:41.025Z,81.79
2023-03-30T08:40:30.103Z,81.42
2023-03-30T08:43:31.003Z,81.05
2023-03-30T08:46:21.103Z,80.95
2023-03-30T08:49:15.970Z,80.63
2023-03-30T08:52:06.917Z,80.59
2023-03-30T08:54:58.366Z,80.16
2023-03-30T08:57:53.705Z,80.01
2023-03-30T09:00:48.654Z,79.70
2023-03-30T09:03:41.909Z,79.06
2023-03-30T09:06:45.230Z,79.01
2023-03-30T09:09:42.641Z,78.89
2023-03-30T09:12:40.537Z,78.62
2023-03-30T09:15:33.034Z,78.80
2023-03-30T09:18:27.054Z,78.33
2023-03-30T09:21:17.718Z,78.68
2023-03-30T09:24:14.880Z,78.54
2023-03-30T09:27:11.874Z,78.88
2023-03-30T09:30:17.369Z,78.91
2023-03-30T09:33:14.747Z,79.19
2023-03-30T09:36:15.477Z,79.46
2023-03-30T09:39:11.368Z,79.33
2023-03-30T09:42:14.642Z,79.11
2023-03-30T09:45:09.968Z,79.14
2023-03-30T09:48:04.952Z,78.79
2023-03-30T09:50:54.328Z,78.88
2023-03-30T09:53:47.335Z,78.66
2023-03-30T09:56:41.662Z,78.68
2023-03-30T09:59:35.349Z,78.52
2023-03-30T10:02:25.563Z,78.19
2023-03-30T10:05:19.076Z,78.30
2023-03-30T10:08:23.013Z,78.06
2023-03-30T10:11:14.009Z,78.03
2023-03-30T10:14:02.689Z,77.93
2023-03-30T10:16:53.270Z,77.67
2023-03-30T10:19:48.170Z,77.62
2023-03-30T10:22:38.674Z,77.64
2023-03-30T10:25:29.752Z,77.42
2023-03-30T10:28:21.667Z,77.30
2023-03-30T10:31:17.862Z,76.92
2023-03-30T10:34:17.205Z,76.47
2023-03-30T10:37:14.286Z,75.96
2023-03-30T10:40:13.092Z,75.70
2023-03-30T10:43:02.949Z,75.45
2023-03-30T10:45:54.736Z,75.18
2023-03-30T10:48:56.757Z,74.72
2023-03-30T10:52:01.765Z,74.56
2023-03-30T10:54:57.917Z,74.22
2023-03-30T10:57:54.762Z,74.19
2023-03-30T11:00:53.501Z,74.11
2023-03-30T11:03:48.056Z,73.53
2023-03-30T11:06:40.994Z,73.19
2023-03-30T11:09:36.192Z,73.34
2023-03-30T11:12:30.855Z,73.09
2023-03-30T11:15:26.422Z,73.27
2023-03-30T11:18:19.210Z,73.33
2023-03-30T11:21:14.017Z,73.25
2023-03-30T11:24:08.113Z,73.39
2023-03-30T11:27:04.203Z,73.51
2023-03-30T11:29:59.090Z,73.62
2023-03-30T11:32:53.964Z,73.74
2023-03-30T11:35:48.160Z,73.71
2023-03-30T11:38:44.234Z,73.78
2023-03-30T11:41:38.181Z,73.99
2023-03-30T11:44:28.992Z,74.11
2023-03-30T11:47:38.524Z,74.32
2023-03-30T11:50:39.839Z,74.53
2023-03-30T11:53:37.474Z,74.84
2023-03-30T11:56:35.829Z,75.31
2023-03-30T11:59:35.621Z,75.36
2023-03-30T12:02:31.226Z,75.75
2023-03-30T12:05:28.114Z,76.09
2023-03-30T12:08:38.677Z,76.09
2023-03-30T12:11:34.976Z,76.07
2023-03-30T12:14:37.691Z,76.08
2023-03-30T12:17:38.242Z,76.36
2023-03-30T12:20:35.794Z,76.11
2023-03-30T12:23:39.539Z,76.34
2023-03-30T12:26:31.024Z,76.04
2023-03-30T12:29:58.440Z,76.09
2023-03-30T12:32:32.466Z,76.04
2023-03-30T12:35:59.702Z,76.02
2023-03-30T12:38:51.333Z,75.63
2023-03-30T12:41:43.098Z,75.30
2023-03-30T12:44:40.053Z,74.98
2023-03-30T12:47:44.138Z,74.94
2023-03-30T12:50:43.345Z,74.81
2023-03-30T12:53:49.698Z,74.26
2023-03-30T12:56:41.085Z,74.56
2023-03-30T12:59:54.423Z,74.27
2023-03-30T13:03:03.708Z,73.89
2023-03-30T13:05:55.534Z,74.13
2023-03-30T13:08:44.170Z,74.13
2023-03-30T13:11:44.982Z,74.09
2023-03-30T13:14:45.924Z,74.06
2023-03-30T13:17:59.241Z,74.05
2023-03-30T13:21:06.123Z,74.26
2023-03-30T13:24:22.488Z,74.10
2023-03-30T13:27:22.454Z,74.27
2023-03-30T13:30:14.437Z,73.96
2023-03-30T13:33:16.003Z,74.03
2023-03-30T13:36:15.533Z,73.92
2023-03-30T13:39:13.673Z,73.59
2023-03-30T13:42:18.714Z,73.47
2023-03-30T13:45:19.146Z,73.06
2023-03-30T13:48:25.083Z,72.87
2023-03-30T13:51:17.401Z,72.59
2023-03-30T13:54:13.844Z,72.80
2023-03-30T13:57:07.596Z,72.54
2023-03-30T14:00:04.330Z,72.36
2023-03-30T14:02:55.357Z,72.39
2023-03-30T14:05:45.385Z,72.11
2023-03-30T14:08:36.601Z,72.23
2023-03-30T14:11:34.179Z,72.17
2023-03-30T14:14:28.348Z,71.87
2023-03-30T14:17:22.554Z,71.82
2023-03-30T14:20:22.238Z,71.85
2023-03-30T14:23:17.448Z,71.77
2023-03-30T14:26:13.851Z,71.38
2023-03-30T14:29:11.097Z,71.80
2023-03-30T14:32:08.925Z,71.47
2023-03-30T14:34:58.572Z,71.79
2023-03-30T14:37:52.174Z,71.95
2023-03-30T14:40:43.906Z,72.02
2023-03-30T14:43:32.942Z,72.47
2023-03-30T14:46:24.881Z,72.34
2023-03-30T14:49:19.798Z,72.59
2023-03-30T14:52:11.059Z,72.78
2023-03-30T14:55:06.636Z,72.50
2023-03-30T14:57:59.542Z,72.85
2023-03-30T15:00:49.026Z,72.93
2023-03-30T15:03:39.646Z,73.15
2023-03-30T15:06:31.041Z,73.06
2023-03-30T15:09:21.318Z,73.48
2023-03-30T15:12:20.255Z,73.67
2023-03-30T15:15:16.581Z,73.65
2023-03-30T15:18:06.173Z,73.85
2023-03-30T15:20:56.553Z,73.93
2023-03-30T15:23:48.307Z,73.55
2023-03-30T15:26:44.729Z,72.81
2023-03-30T15:29:34.746Z,72.40
2023-03-30T15:32:30.302Z,72.28
2023-03-30T15:35:23.519Z,72.62
2023-03-30T15:38:17.340Z,72.61
2023-03-30T15:41:14.541Z,72.85
2023-03-30T15:44:12.508Z,72.95
2023-03-30T15:47:02.302Z,73.03
2023-03-30T15:49:53.430Z,73.15
2023-03-30T15:52:45.358Z,73.25
2023-03-30T15:55:34.934Z,73.55
2023-03-30T15:58:28.258Z,73.44
2023-03-30T16:01:17.295Z,73.61
2023-03-30T16:04:07.113Z,73.21
2023-03-30T16:06:57.846Z,72.75
2023-03-30T16:09:47.078Z,72.06
2023-03-30T16:12:36.487Z,71.57
2023-03-30T16:15:30.315Z,71.14
2023-03-30T16:18:19.528Z,70.81
2023-03-30T16:21:10.762Z,70.86
2023-03-30T16:24:00.791Z,70.81
2023-03-30T16:26:49.415Z,70.72
2023-03-30T16:29:39.989Z,70.18
2023-03-30T16:32:35.256Z,69.56
2023-03-30T16:35:25.292Z,69.15
2023-03-30T16:38:16.408Z,68.71
2023-03-30T16:41:07.780Z,68.14
2023-03-30T16:43:56.939Z,67.88
2023-03-30T16:46:46.721Z,67.58
2023-03-30T16:49:36.542Z,67.00
2023-03-30T16:52:25.290Z,66.44
2023-03-30T16:55:14.915Z,65.63
2023-03-30T16:58:05.622Z,65.20
2023-03-30T17:00:56.656Z,64.77
2023-03-30T17:03:45.764Z,64.48
2023-03-30T17:06:34.830Z,64.42
2023-03-30T17:09:24.278Z,63.98
2023-03-30T17:12:13.489Z,63.88
2023-03-30T17:15:03.762Z,64.01
2023-03-30T17:17:53.665Z,63.56
2023-03-30T17:20:45.021Z,63.40
2023-03-30T17:23:34.570Z,63.58
2023-03-30T17:26:23.403Z,63.72
2023-03-30T17:29:12.545Z,63.78
2023-03-30T17:32:02.688Z,63.68
2023-03-30T17:34:52.134Z,63.52
2023-03-30T17:37:40.944Z,63.39
2023-03-30T17:40:32.211Z,63.47
2023-03-30T17:43:20.994Z,63.90
2023-03-30T17:46:11.934Z,64.23
2023-03-30T17:49:02.594Z,64.20
2023-03-30T17:51:52.482Z,64.23
2023-03-30T17:54:43.004Z,64.55
2023-03-30T17:57:32.307Z,64.88
2023-03-30T18:00:25.691Z,64.92
2023-03-30T18:03:15.123Z,64.66
2023-03-30T18:06:06.299Z,64.49
2023-03-30T18:08:55.929Z,64.62
2023-03-30T18:11:45.070Z,64.39
2023-03-30T18:14:33.681Z,64.72
2023-03-30T18:17:23.207Z,64.91
2023-03-30T18:20:18.145Z,65.01
2023-03-30T18:23:09.863Z,64.95
2023-03-30T18:25:58.769Z,64.97
2023-03-30T18:28:48.228Z,64.80
2023-03-30T18:31:36.929Z,65.26
2023-03-30T18:34:26.041Z,65.46
2023-03-30T18:37:14.678Z,65.32
2023-03-30T18:40:14.795Z,65.64
2023-03-30T18:43:03.595Z,65.35
2023-03-30T18:45:52.855Z,65.55
2023-03-30T18:48:41.550Z,65.61
2023-03-30T18:51:31.209Z,65.78
2023-03-30T18:54:19.939Z,66.10
2023-03-30T18:57:11.218Z,66.29
2023-03-30T19:00:03.187Z,66.50
2023-03-30T19:02:52.586Z,66.48
2023-03-30T19:05:42.320Z,66.89
2023-03-30T19:08:30.973Z,67.06
2023-03-30T19:11:23.649Z,67.12
2023-03-30T19:14:14.465Z,67.05
2023-03-30T19:17:03.166Z,67.05
2023-03-30T19:19:51.938Z,67.45
2023-03-30T19:22:40.630Z,67.39
2023-03-30T19:25:29.434Z,67.75
2023-03-30T19:28:18.806Z,67.73
2023-03-30T19:31:13.334Z,68.21
2023-03-30T19:34:02.167Z,68.11
2023-03-30T19:36:51.750Z,68.38
2023-03-30T19:39:41.133Z,68.38
2023-03-30T19:42:32.428Z,68.65
2023-03-30T19:45:23.659Z,68.64
2023-03-30T19:48:14.320Z,69.13
2023-03-30T19:51:03.165Z,69.11
2023-03-30T19:53:52.376Z,69.05
2023-03-30T19:56:41.120Z,69.04
2023-03-30T19:59:30.229Z,68.97
2023-03-30T20:02:19.784Z,69.06
2023-03-30T20:05:12.844Z,69.44
2023-03-30T20:08:10.478Z,69.41
2023-03-30T20:11:08.002Z,69.51
2023-03-30T20:13:56.657Z,69.40
2023-03-30T20:16:45.625Z,69.58
2023-03-30T20:19:34.967Z,69.46
2023-03-30T20:22:25.256Z,69.37
2023-03-30T20:25:17.170Z,69.81
2023-03-30T20:28:06.038Z,69.62
2023-03-30T20:30:56.536Z,69.49
2023-03-30T20:33:45.315Z,69.30
2023-03-30T20:36:34.057Z,69.32
2023-03-30T20:39:27.129Z,69.22
2023-03-30T20:42:18.019Z,68.93
2023-03-30T20:45:08.880Z,69.05
2023-03-30T20:47:57.587Z,68.58
2023-03-30T20:50:47.655Z,69.10
2023-03-30T20:53:36.668Z,68.65
2023-03-30T20:56:28.716Z,68.47
2023-03-30T20:59:17.420Z,68.36
2023-03-30T21:02:06.389Z,68.39
2023-03-30T21:04:57.969Z,68.28
2023-03-30T21:07:47.442Z,68.44
2023-03-30T21:10:36.465Z,67.99
2023-03-30T21:13:28.181Z,68.16
2023-03-30T21:16:17.510Z,67.92
2023-03-30T21:19:06.615Z,67.66
2023-03-30T21:21:56.130Z,67.92
2023-03-30T21:24:44.737Z,67.75
2023-03-30T21:27:33.781Z,67.53
2023-03-30T21:30:23.758Z,67.61
2023-03-30T21:33:12.919Z,67.40
2023-03-30T21:36:01.640Z,67.32
2023-03-30T21:38:51.008Z,67.63
2023-03-30T21:41:39.664Z,67.51
2023-03-30T21:44:28.751Z,67.64
2023-03-30T21:47:18.726Z,67.21
2023-03-30T21:50:09.316Z,67.46
2023-03-30T21:52:59.188Z,67.35
2023-03-30T21:55:48.244Z,67.20
2023-03-30T21:58:36.881Z,67.30
2023-03-30T22:01:27.092Z,67.02
2023-03-30T22:04:17.114Z,66.91
2023-03-30T22:07:06.445Z,66.78
2023-03-30T22:09:58.032Z,66.90
2023-03-30T22:12:46.958Z,66.63
2023-03-30T22:15:36.826Z,66.56
2023-03-30T22:18:25.864Z,66.59
2023-03-30T22:21:18.778Z,66.46
2023-03-30T22:24:08.769Z,66.60
2023-03-30T22:26:58.150Z,66.27
2023-03-30T22:29:46.759Z,66.36
2023-03-30T22:32:35.842Z,66.51
2023-03-30T22:35:24.581Z,66.43
2023-03-30T22:38:16.563Z,66.34
2023-03-30T22:41:07.855Z,66.40
2023-03-30T22:43:58.891Z,66.25
2023-03-30T22:46:48.008Z,66.32
2023-03-30T22:49:36.913Z,66.30
2023-03-30T22:52:26.078Z,66.36
2023-03-30T22:55:17.884Z,66.16
2023-03-30T22:58:07.124Z,66.31
2023-03-30T23:01:01.195Z,66.06
2023-03-30T23:03:50.852Z,66.26
2023-03-30T23:06:39.812Z,65.88
2023-03-30T23:09:29.790Z,66.03
2023-03-30T23:12:19.872Z,65.96
2023-03-30T23:15:10.713Z,65.87
2023-03-30T23:17:59.636Z,65.78
2023-03-30T23:20:48.975Z,66.07
2023-03-30T23:23:39.171Z,65.75
2023-03-30T23:26:28.525Z,66.32
2023-03-30T23:29:19.935Z,66.46
2023-03-30T23:32:09.930Z,66.77
2023-03-30T23:34:58.554Z,67.07
2023-03-30T23:37:47.644Z,66.83
2023-03-30T23:40:36.308Z,67.16
2023-03-30T23:43:25.453Z,67.26
2023-03-30T23:46:16.143Z,67.40
2023-03-30T23:49:05.270Z,66.97
2023-03-30T23:51:54.331Z,67.35
2023-03-30T23:54:43.051Z,67.31
2023-03-30T23:57:32.158Z,67.45
